Alpine Meadows, California
Current Conditions -  °F | °C
As of 6:50 AM on Wednesday 22 Oct 2014 (Local Time) from KTRK Reporting Station
Scattered Clouds Scattered Clouds  
Wind Chill: 25°   Ceiling: Unl
Heat Index: 25°   Visibility: 10mi
Dew Point: 21°   Wind: 0mph
Humidity: 86%   Direction: NA
Pressure: 30.17"   Gusts: NA
Location:  39.16°N, 120.24°W
Report Text: KTRK 221350Z 00000KT 10SM SCT130 M04/M06 A3017 RMK NOSPECI FIRST 24HR MAX 0155 MIN 0000
Loading
Personal Weather Stations






























Interactive Weather Map New forecast layout! Learn more

10-Day Weather Forecast

Advertisements
Track Severe Weather on mobile